sensor_id;sensor_type;location;lat;lon;timestamp;pressure;altitude;pressure_sealevel;temperature;humidity
77212;BME280;66206;0.000;0.000;2023-07-02T00:00:21;97143.14;;;26.51;32.37
77212;BME280;66206;0.000;0.000;2023-07-02T00:02:47;97140.32;;;26.64;32.25
77212;BME280;66206;0.000;0.000;2023-07-02T00:05:14;97139.26;;;26.27;32.70
77212;BME280;66206;0.000;0.000;2023-07-02T00:07:41;97136.79;;;26.73;32.27
77212;BME280;66206;0.000;0.000;2023-07-02T00:10:08;97133.04;;;26.61;32.49
77212;BME280;66206;0.000;0.000;2023-07-02T00:12:35;97132.38;;;26.56;32.43
77212;BME280;66206;0.000;0.000;2023-07-02T00:15:02;97138.79;;;26.34;32.86
77212;BME280;66206;0.000;0.000;2023-07-02T00:17:29;97136.47;;;26.45;32.69
77212;BME280;66206;0.000;0.000;2023-07-02T00:19:55;97135.08;;;26.23;32.88
77212;BME280;66206;0.000;0.000;2023-07-02T00:22:22;97136.60;;;26.38;32.71
77212;BME280;66206;0.000;0.000;2023-07-02T00:24:49;97137.37;;;26.36;32.79
77212;BME280;66206;0.000;0.000;2023-07-02T00:27:16;97138.02;;;26.30;32.79
77212;BME280;66206;0.000;0.000;2023-07-02T00:29:42;97138.61;;;26.24;32.93
77212;BME280;66206;0.000;0.000;2023-07-02T00:32:09;97138.08;;;26.01;33.22
77212;BME280;66206;0.000;0.000;2023-07-02T00:34:36;97143.34;;;26.23;32.89
77212;BME280;66206;0.000;0.000;2023-07-02T00:37:03;97143.06;;;26.21;32.88
77212;BME280;66206;0.000;0.000;2023-07-02T00:39:29;97149.37;;;26.26;33.00
77212;BME280;66206;0.000;0.000;2023-07-02T00:41:59;97147.54;;;26.31;32.82
77212;BME280;66206;0.000;0.000;2023-07-02T00:44:26;97142.98;;;26.26;33.00
77212;BME280;66206;0.000;0.000;2023-07-02T00:46:53;97134.33;;;26.14;33.12
77212;BME280;66206;0.000;0.000;2023-07-02T00:49:20;97141.13;;;25.80;33.55
77212;BME280;66206;0.000;0.000;2023-07-02T00:51:46;97141.66;;;26.24;33.21
77212;BME280;66206;0.000;0.000;2023-07-02T00:54:13;97139.06;;;26.30;33.07
77212;BME280;66206;0.000;0.000;2023-07-02T00:56:40;97135.68;;;26.22;33.16
77212;BME280;66206;0.000;0.000;2023-07-02T00:59:07;97141.15;;;26.10;33.28
77212;BME280;66206;0.000;0.000;2023-07-02T01:01:33;97144.13;;;25.91;33.50
77212;BME280;66206;0.000;0.000;2023-07-02T01:04:01;97136.51;;;26.10;33.22
77212;BME280;66206;0.000;0.000;2023-07-02T01:06:28;97132.68;;;26.12;33.29
77212;BME280;66206;0.000;0.000;2023-07-02T01:08:56;97138.04;;;25.86;33.61
77212;BME280;66206;0.000;0.000;2023-07-02T01:11:25;97145.24;;;25.75;33.65
77212;BME280;66206;0.000;0.000;2023-07-02T01:13:48;97149.79;;;26.01;33.49
77212;BME280;66206;0.000;0.000;2023-07-02T01:16:15;97150.51;;;26.09;33.39
77212;BME280;66206;0.000;0.000;2023-07-02T01:18:42;97156.78;;;26.32;33.09
77212;BME280;66206;0.000;0.000;2023-07-02T01:21:10;97159.33;;;26.00;33.32
77212;BME280;66206;0.000;0.000;2023-07-02T01:23:36;97157.28;;;26.16;33.25
77212;BME280;66206;0.000;0.000;2023-07-02T01:26:03;97157.48;;;25.86;33.63
77212;BME280;66206;0.000;0.000;2023-07-02T01:28:34;97158.36;;;26.20;33.32
77212;BME280;66206;0.000;0.000;2023-07-02T01:30:56;97156.82;;;26.03;33.48
77212;BME280;66206;0.000;0.000;2023-07-02T01:33:22;97156.14;;;26.23;33.16
77212;BME280;66206;0.000;0.000;2023-07-02T01:35:49;97155.66;;;26.05;33.32
77212;BME280;66206;0.000;0.000;2023-07-02T01:38:16;97156.80;;;26.09;33.39
77212;BME280;66206;0.000;0.000;2023-07-02T01:40:43;97159.51;;;26.13;33.35
77212;BME280;66206;0.000;0.000;2023-07-02T01:43:10;97161.24;;;26.16;33.49
77212;BME280;66206;0.000;0.000;2023-07-02T01:45:37;97161.75;;;26.16;33.31
77212;BME280;66206;0.000;0.000;2023-07-02T01:48:04;97157.29;;;26.12;33.50
77212;BME280;66206;0.000;0.000;2023-07-02T01:50:30;97154.94;;;25.94;33.71
77212;BME280;66206;0.000;0.000;2023-07-02T01:52:57;97159.54;;;26.07;33.44
77212;BME280;66206;0.000;0.000;2023-07-02T01:55:24;97163.98;;;26.28;33.14
77212;BME280;66206;0.000;0.000;2023-07-02T01:57:51;97166.13;;;25.86;33.52
77212;BME280;66206;0.000;0.000;2023-07-02T02:00:18;97167.39;;;25.76;33.75
77212;BME280;66206;0.000;0.000;2023-07-02T02:02:45;97164.19;;;25.80;33.53
77212;BME280;66206;0.000;0.000;2023-07-02T02:05:11;97171.94;;;25.69;33.83
77212;BME280;66206;0.000;0.000;2023-07-02T02:07:38;97172.82;;;25.83;33.46
77212;BME280;66206;0.000;0.000;2023-07-02T02:10:05;97172.07;;;26.12;33.15
77212;BME280;66206;0.000;0.000;2023-07-02T02:12:32;97172.54;;;25.97;33.20
77212;BME280;66206;0.000;0.000;2023-07-02T02:14:59;97172.26;;;26.03;33.07
77212;BME280;66206;0.000;0.000;2023-07-02T02:17:26;97179.25;;;25.71;33.37
77212;BME280;66206;0.000;0.000;2023-07-02T02:19:53;97178.57;;;25.81;33.11
77212;BME280;66206;0.000;0.000;2023-07-02T02:22:19;97185.39;;;25.62;33.34
77212;BME280;66206;0.000;0.000;2023-07-02T02:24:46;97186.10;;;25.69;33.06
77212;BME280;66206;0.000;0.000;2023-07-02T02:27:13;97187.89;;;25.53;33.21
77212;BME280;66206;0.000;0.000;2023-07-02T02:29:39;97185.14;;;25.38;33.09
77212;BME280;66206;0.000;0.000;2023-07-02T02:32:06;97193.69;;;25.78;32.60
77212;BME280;66206;0.000;0.000;2023-07-02T02:34:33;97191.23;;;25.13;33.10
77212;BME280;66206;0.000;0.000;2023-07-02T02:37:00;97190.61;;;25.32;32.91
77212;BME280;66206;0.000;0.000;2023-07-02T02:39:27;97188.30;;;25.69;32.66
77212;BME280;66206;0.000;0.000;2023-07-02T02:41:53;97187.56;;;25.29;32.78
77212;BME280;66206;0.000;0.000;2023-07-02T02:44:20;97187.48;;;25.21;32.69
77212;BME280;66206;0.000;0.000;2023-07-02T02:46:47;97187.51;;;25.18;32.70
77212;BME280;66206;0.000;0.000;2023-07-02T02:49:13;97187.30;;;25.82;32.00
77212;BME280;66206;0.000;0.000;2023-07-02T02:51:40;97189.01;;;25.55;32.26
77212;BME280;66206;0.000;0.000;2023-07-02T02:54:07;97187.14;;;25.74;31.96
77212;BME280;66206;0.000;0.000;2023-07-02T02:56:34;97181.88;;;25.83;31.81
77212;BME280;66206;0.000;0.000;2023-07-02T02:59:00;97184.78;;;25.63;31.85
77212;BME280;66206;0.000;0.000;2023-07-02T03:01:27;97184.03;;;25.11;32.48
77212;BME280;66206;0.000;0.000;2023-07-02T03:03:54;97183.29;;;25.35;32.30
77212;BME280;66206;0.000;0.000;2023-07-02T03:06:21;97188.84;;;25.42;32.09
77212;BME280;66206;0.000;0.000;2023-07-02T03:08:47;97188.31;;;25.31;32.19
77212;BME280;66206;0.000;0.000;2023-07-02T03:11:14;97188.44;;;25.36;32.12
77212;BME280;66206;0.000;0.000;2023-07-02T03:13:41;97186.39;;;25.32;31.91
77212;BME280;66206;0.000;0.000;2023-07-02T03:16:08;97188.96;;;25.34;31.72
77212;BME280;66206;0.000;0.000;2023-07-02T03:18:35;97191.65;;;25.50;31.52
77212;BME280;66206;0.000;0.000;2023-07-02T03:21:01;97194.83;;;25.60;31.53
77212;BME280;66206;0.000;0.000;2023-07-02T03:23:28;97199.85;;;25.35;31.56
77212;BME280;66206;0.000;0.000;2023-07-02T03:25:55;97205.11;;;25.33;31.64
77212;BME280;66206;0.000;0.000;2023-07-02T03:28:22;97204.72;;;25.23;31.67
77212;BME280;66206;0.000;0.000;2023-07-02T03:30:48;97210.63;;;25.58;31.22
77212;BME280;66206;0.000;0.000;2023-07-02T03:33:15;97214.42;;;25.47;31.28
77212;BME280;66206;0.000;0.000;2023-07-02T03:35:42;97214.44;;;25.45;31.24
77212;BME280;66206;0.000;0.000;2023-07-02T03:38:09;97212.45;;;25.59;31.09
77212;BME280;66206;0.000;0.000;2023-07-02T03:40:35;97214.37;;;25.44;31.13
77212;BME280;66206;0.000;0.000;2023-07-02T03:43:02;97221.40;;;25.54;31.08
77212;BME280;66206;0.000;0.000;2023-07-02T03:45:29;97219.62;;;25.34;31.36
77212;BME280;66206;0.000;0.000;2023-07-02T03:47:56;97223.80;;;25.51;31.07
77212;BME280;66206;0.000;0.000;2023-07-02T03:50:22;97224.32;;;25.05;31.56
77212;BME280;66206;0.000;0.000;2023-07-02T03:52:49;97225.30;;;25.37;31.23
77212;BME280;66206;0.000;0.000;2023-07-02T03:55:16;97229.92;;;25.25;31.35
77212;BME280;66206;0.000;0.000;2023-07-02T03:57:43;97231.96;;;25.48;31.14
77212;BME280;66206;0.000;0.000;2023-07-02T04:00:09;97237.94;;;25.29;31.32
77212;BME280;66206;0.000;0.000;2023-07-02T04:02:36;97244.45;;;25.55;31.16
77212;BME280;66206;0.000;0.000;2023-07-02T04:05:03;97247.89;;;25.55;31.06
77212;BME280;66206;0.000;0.000;2023-07-02T04:07:30;97251.44;;;25.66;30.84
77212;BME280;66206;0.000;0.000;2023-07-02T04:09:57;97252.00;;;25.72;30.79
77212;BME280;66206;0.000;0.000;2023-07-02T04:12:24;97260.78;;;25.36;31.20
77212;BME280;66206;0.000;0.000;2023-07-02T04:14:50;97256.10;;;25.35;31.26
77212;BME280;66206;0.000;0.000;2023-07-02T04:17:17;97260.29;;;25.29;31.31
77212;BME280;66206;0.000;0.000;2023-07-02T04:19:44;97260.91;;;25.38;30.96
77212;BME280;66206;0.000;0.000;2023-07-02T04:22:11;97264.36;;;25.54;30.76
77212;BME280;66206;0.000;0.000;2023-07-02T04:24:37;97265.74;;;25.62;30.58
77212;BME280;66206;0.000;0.000;2023-07-02T04:27:04;97267.08;;;25.69;30.56
77212;BME280;66206;0.000;0.000;2023-07-02T04:29:31;97272.89;;;25.34;30.75
77212;BME280;66206;0.000;0.000;2023-07-02T04:31:58;97273.29;;;25.46;30.60
77212;BME280;66206;0.000;0.000;2023-07-02T04:34:25;97277.89;;;25.46;30.51
77212;BME280;66206;0.000;0.000;2023-07-02T04:36:51;97281.95;;;25.58;30.37
77212;BME280;66206;0.000;0.000;2023-07-02T04:39:18;97281.64;;;25.45;30.36
77212;BME280;66206;0.000;0.000;2023-07-02T04:41:45;97278.98;;;25.21;30.63
77212;BME280;66206;0.000;0.000;2023-07-02T04:44:12;97282.10;;;25.47;30.13
77212;BME280;66206;0.000;0.000;2023-07-02T04:46:38;97282.48;;;25.20;30.29
77212;BME280;66206;0.000;0.000;2023-07-02T04:49:05;97281.30;;;25.50;29.97
77212;BME280;66206;0.000;0.000;2023-07-02T04:51:32;97286.35;;;25.21;30.20
77212;BME280;66206;0.000;0.000;2023-07-02T04:53:59;97285.33;;;25.63;29.78
77212;BME280;66206;0.000;0.000;2023-07-02T04:56:25;97291.78;;;25.39;29.79
77212;BME280;66206;0.000;0.000;2023-07-02T04:58:52;97295.16;;;25.47;29.63
77212;BME280;66206;0.000;0.000;2023-07-02T05:01:19;97296.44;;;25.48;29.69
77212;BME280;66206;0.000;0.000;2023-07-02T05:03:45;97296.02;;;25.33;29.67
77212;BME280;66206;0.000;0.000;2023-07-02T05:06:12;97292.77;;;25.34;29.70
77212;BME280;66206;0.000;0.000;2023-07-02T05:08:39;97302.95;;;25.56;29.40
77212;BME280;66206;0.000;0.000;2023-07-02T05:11:06;97309.69;;;25.39;29.48
77212;BME280;66206;0.000;0.000;2023-07-02T05:13:32;97315.94;;;25.70;29.17
77212;BME280;66206;0.000;0.000;2023-07-02T05:15:59;97316.39;;;25.57;29.25
77212;BME280;66206;0.000;0.000;2023-07-02T05:18:26;97319.53;;;25.54;29.22
77212;BME280;66206;0.000;0.000;2023-07-02T05:20:53;97322.98;;;25.53;29.16
77212;BME280;66206;0.000;0.000;2023-07-02T05:23:20;97320.74;;;25.51;29.22
77212;BME280;66206;0.000;0.000;2023-07-02T05:25:46;97320.87;;;25.60;29.17
77212;BME280;66206;0.000;0.000;2023-07-02T05:28:13;97327.62;;;25.55;29.10
77212;BME280;66206;0.000;0.000;2023-07-02T05:30:40;97324.40;;;25.66;28.91
77212;BME280;66206;0.000;0.000;2023-07-02T05:33:07;97321.27;;;25.77;28.87
77212;BME280;66206;0.000;0.000;2023-07-02T05:35:33;97318.45;;;25.36;29.10
77212;BME280;66206;0.000;0.000;2023-07-02T05:38:00;97322.03;;;25.35;29.12
77212;BME280;66206;0.000;0.000;2023-07-02T05:40:27;97324.76;;;25.69;28.87
77212;BME280;66206;0.000;0.000;2023-07-02T05:42:54;97330.24;;;25.70;28.78
77212;BME280;66206;0.000;0.000;2023-07-02T05:45:20;97330.50;;;25.73;28.79
77212;BME280;66206;0.000;0.000;2023-07-02T05:47:47;97332.70;;;25.80;28.78
77212;BME280;66206;0.000;0.000;2023-07-02T05:50:14;97324.77;;;25.87;28.80
77212;BME280;66206;0.000;0.000;2023-07-02T05:52:40;97322.70;;;25.71;29.07
77212;BME280;66206;0.000;0.000;2023-07-02T05:55:08;97326.35;;;25.52;29.26
77212;BME280;66206;0.000;0.000;2023-07-02T05:57:34;97331.79;;;25.72;29.05
77212;BME280;66206;0.000;0.000;2023-07-02T06:00:01;97331.53;;;25.54;29.20
77212;BME280;66206;0.000;0.000;2023-07-02T06:02:28;97329.90;;;25.53;29.17
77212;BME280;66206;0.000;0.000;2023-07-02T06:04:55;97337.65;;;25.29;29.53
77212;BME280;66206;0.000;0.000;2023-07-02T06:07:21;97335.70;;;25.65;29.15
77212;BME280;66206;0.000;0.000;2023-07-02T06:09:48;97332.79;;;25.62;29.09
77212;BME280;66206;0.000;0.000;2023-07-02T06:12:15;97329.20;;;25.56;29.10
77212;BME280;66206;0.000;0.000;2023-07-02T06:14:42;97332.77;;;25.68;29.02
77212;BME280;66206;0.000;0.000;2023-07-02T06:17:08;97339.06;;;25.66;28.98
77212;BME280;66206;0.000;0.000;2023-07-02T06:19:36;97338.13;;;25.56;28.92
77212;BME280;66206;0.000;0.000;2023-07-02T06:22:03;97338.42;;;25.44;28.69
77212;BME280;66206;0.000;0.000;2023-07-02T06:24:30;97345.38;;;25.54;28.54
77212;BME280;66206;0.000;0.000;2023-07-02T06:26:57;97346.86;;;25.55;28.34
77212;BME280;66206;0.000;0.000;2023-07-02T06:29:24;97344.52;;;25.47;28.14
77212;BME280;66206;0.000;0.000;2023-07-02T06:31:51;97355.83;;;25.36;28.20
77212;BME280;66206;0.000;0.000;2023-07-02T06:34:17;97351.64;;;25.00;28.23
77212;BME280;66206;0.000;0.000;2023-07-02T06:36:44;97353.28;;;25.46;27.59
77212;BME280;66206;0.000;0.000;2023-07-02T06:39:11;97351.65;;;25.10;27.59
77212;BME280;66206;0.000;0.000;2023-07-02T06:41:38;97354.14;;;25.30;27.39
77212;BME280;66206;0.000;0.000;2023-07-02T06:44:05;97355.88;;;25.38;27.28
77212;BME280;66206;0.000;0.000;2023-07-02T06:46:31;97353.88;;;25.43;27.32
77212;BME280;66206;0.000;0.000;2023-07-02T06:48:58;97356.26;;;25.21;27.42
77212;BME280;66206;0.000;0.000;2023-07-02T06:51:25;97355.39;;;25.49;27.34
77212;BME280;66206;0.000;0.000;2023-07-02T06:53:52;97355.37;;;25.32;27.43
77212;BME280;66206;0.000;0.000;2023-07-02T06:56:19;97357.09;;;25.26;27.23
77212;BME280;66206;0.000;0.000;2023-07-02T06:58:45;97362.07;;;25.58;26.95
77212;BME280;66206;0.000;0.000;2023-07-02T07:01:12;97361.16;;;25.35;27.12
77212;BME280;66206;0.000;0.000;2023-07-02T07:03:39;97361.30;;;25.46;26.63
77212;BME280;66206;0.000;0.000;2023-07-02T07:06:06;97356.24;;;25.35;26.57
77212;BME280;66206;0.000;0.000;2023-07-02T07:08:32;97359.83;;;24.85;26.26
77212;BME280;66206;0.000;0.000;2023-07-02T07:10:59;97362.52;;;25.32;25.78
77212;BME280;66206;0.000;0.000;2023-07-02T07:13:26;97356.62;;;25.18;25.84
77212;BME280;66206;0.000;0.000;2023-07-02T07:15:53;97360.06;;;25.47;25.57
77212;BME280;66206;0.000;0.000;2023-07-02T07:18:19;97356.28;;;24.99;25.85
77212;BME280;66206;0.000;0.000;2023-07-02T07:20:46;97346.48;;;25.01;25.66
77212;BME280;66206;0.000;0.000;2023-07-02T07:23:13;97359.18;;;24.96;25.55
77212;BME280;66206;0.000;0.000;2023-07-02T07:25:40;97354.27;;;25.06;25.53
77212;BME280;66206;0.000;0.000;2023-07-02T07:28:07;97356.70;;;25.27;25.38
77212;BME280;66206;0.000;0.000;2023-07-02T07:30:34;97356.23;;;25.14;25.52
77212;BME280;66206;0.000;0.000;2023-07-02T07:33:01;97360.63;;;25.45;25.23
77212;BME280;66206;0.000;0.000;2023-07-02T07:35:27;97361.69;;;25.32;25.42
77212;BME280;66206;0.000;0.000;2023-07-02T07:37:54;97358.41;;;25.37;25.44
77212;BME280;66206;0.000;0.000;2023-07-02T07:40:21;97353.58;;;25.21;25.66
77212;BME280;66206;0.000;0.000;2023-07-02T07:42:48;97352.20;;;24.96;25.93
77212;BME280;66206;0.000;0.000;2023-07-02T07:45:14;97351.00;;;25.01;25.89
77212;BME280;66206;0.000;0.000;2023-07-02T07:47:41;97345.56;;;25.05;25.85
77212;BME280;66206;0.000;0.000;2023-07-02T07:50:08;97349.80;;;25.27;25.78
77212;BME280;66206;0.000;0.000;2023-07-02T07:52:35;97346.47;;;25.18;25.86
77212;BME280;66206;0.000;0.000;2023-07-02T07:55:01;97352.11;;;25.43;25.81
77212;BME280;66206;0.000;0.000;2023-07-02T07:57:28;97355.07;;;25.26;25.76
77212;BME280;66206;0.000;0.000;2023-07-02T07:59:55;97357.38;;;25.31;25.46
77212;BME280;66206;0.000;0.000;2023-07-02T08:02:22;97354.51;;;25.54;25.21
77212;BME280;66206;0.000;0.000;2023-07-02T08:04:48;97357.89;;;25.39;25.12
77212;BME280;66206;0.000;0.000;2023-07-02T08:07:15;97351.48;;;24.89;25.52
77212;BME280;66206;0.000;0.000;2023-07-02T08:09:42;97360.48;;;25.28;25.03
77212;BME280;66206;0.000;0.000;2023-07-02T08:12:09;97356.08;;;25.30;24.91
77212;BME280;66206;0.000;0.000;2023-07-02T08:14:35;97359.16;;;25.41;24.87
77212;BME280;66206;0.000;0.000;2023-07-02T08:17:02;97361.78;;;24.76;25.28
77212;BME280;66206;0.000;0.000;2023-07-02T08:19:29;97357.47;;;25.06;24.99
77212;BME280;66206;0.000;0.000;2023-07-02T08:21:56;97358.53;;;25.19;24.85
77212;BME280;66206;0.000;0.000;2023-07-02T08:24:23;97364.41;;;25.64;24.45
77212;BME280;66206;0.000;0.000;2023-07-02T08:26:49;97361.44;;;25.31;24.61
77212;BME280;66206;0.000;0.000;2023-07-02T08:29:16;97363.62;;;25.38;24.66
77212;BME280;66206;0.000;0.000;2023-07-02T08:31:43;97371.22;;;25.33;24.76
77212;BME280;66206;0.000;0.000;2023-07-02T08:34:10;97373.11;;;25.56;24.56
77212;BME280;66206;0.000;0.000;2023-07-02T08:36:36;97364.78;;;25.17;24.80
77212;BME280;66206;0.000;0.000;2023-07-02T08:39:03;97369.68;;;25.54;24.55
77212;BME280;66206;0.000;0.000;2023-07-02T08:41:30;97363.73;;;25.26;24.80
77212;BME280;66206;0.000;0.000;2023-07-02T08:43:57;97367.00;;;25.40;24.76
77212;BME280;66206;0.000;0.000;2023-07-02T08:46:25;97367.67;;;25.07;25.05
77212;BME280;66206;0.000;0.000;2023-07-02T08:48:52;97371.43;;;25.27;25.05
77212;BME280;66206;0.000;0.000;2023-07-02T08:51:18;97372.93;;;25.38;24.74
77212;BME280;66206;0.000;0.000;2023-07-02T08:53:45;97372.36;;;25.49;24.71
77212;BME280;66206;0.000;0.000;2023-07-02T08:56:12;97372.26;;;25.41;24.79
77212;BME280;66206;0.000;0.000;2023-07-02T08:58:39;97373.28;;;25.62;24.62
77212;BME280;66206;0.000;0.000;2023-07-02T09:01:07;97380.65;;;25.57;24.67
77212;BME280;66206;0.000;0.000;2023-07-02T09:03:34;97384.08;;;25.49;24.89
77212;BME280;66206;0.000;0.000;2023-07-02T09:06:01;97383.27;;;25.39;25.11
77212;BME280;66206;0.000;0.000;2023-07-02T09:08:28;97381.15;;;25.36;25.41
77212;BME280;66206;0.000;0.000;2023-07-02T09:11:04;97387.28;;;25.84;25.01
77212;BME280;66206;0.000;0.000;2023-07-02T09:13:21;97383.63;;;25.28;25.60
77212;BME280;66206;0.000;0.000;2023-07-02T09:15:48;97384.29;;;25.28;25.35
77212;BME280;66206;0.000;0.000;2023-07-02T09:18:15;97385.33;;;25.76;24.90
77212;BME280;66206;0.000;0.000;2023-07-02T09:20:42;97380.03;;;25.89;24.82
77212;BME280;66206;0.000;0.000;2023-07-02T09:23:09;97381.53;;;26.06;24.38
77212;BME280;66206;0.000;0.000;2023-07-02T09:25:36;97381.11;;;25.95;24.46
77212;BME280;66206;0.000;0.000;2023-07-02T09:28:13;97378.62;;;25.53;24.25
77212;BME280;66206;0.000;0.000;2023-07-02T09:30:29;97385.85;;;26.05;24.23
77212;BME280;66206;0.000;0.000;2023-07-02T09:33:05;97381.41;;;25.69;24.56
77212;BME280;66206;0.000;0.000;2023-07-02T09:35:22;97383.71;;;26.41;24.02
77212;BME280;66206;0.000;0.000;2023-07-02T09:37:48;97379.45;;;26.03;23.97
77212;BME280;66206;0.000;0.000;2023-07-02T09:40:15;97382.39;;;26.15;23.93
77212;BME280;66206;0.000;0.000;2023-07-02T09:42:42;97372.73;;;25.83;23.88
77212;BME280;66206;0.000;0.000;2023-07-02T09:45:09;97383.23;;;25.84;23.77
77212;BME280;66206;0.000;0.000;2023-07-02T09:47:37;97382.12;;;26.33;23.59
77212;BME280;66206;0.000;0.000;2023-07-02T09:50:04;97380.08;;;26.19;23.95
77212;BME280;66206;0.000;0.000;2023-07-02T09:52:31;97378.00;;;26.14;23.92
77212;BME280;66206;0.000;0.000;2023-07-02T09:54:59;97372.75;;;26.47;23.62
77212;BME280;66206;0.000;0.000;2023-07-02T09:57:26;97372.72;;;26.35;23.66
77212;BME280;66206;0.000;0.000;2023-07-02T09:59:53;97384.03;;;26.44;23.66
77212;BME280;66206;0.000;0.000;2023-07-02T10:02:20;97375.60;;;26.50;23.30
77212;BME280;66206;0.000;0.000;2023-07-02T10:04:47;97387.82;;;26.19;23.44
77212;BME280;66206;0.000;0.000;2023-07-02T10:07:25;97383.63;;;26.52;22.98
77212;BME280;66206;0.000;0.000;2023-07-02T10:09:42;97374.28;;;26.41;23.13
77212;BME280;66206;0.000;0.000;2023-07-02T10:12:17;97377.07;;;26.33;23.27
77212;BME280;66206;0.000;0.000;2023-07-02T10:14:40;97378.04;;;26.65;22.98
77212;BME280;66206;0.000;0.000;2023-07-02T10:17:07;97382.09;;;26.52;23.29
77212;BME280;66206;0.000;0.000;2023-07-02T10:19:34;97387.89;;;26.38;23.27
77212;BME280;66206;0.000;0.000;2023-07-02T10:22:01;97384.98;;;26.60;23.16
77212;BME280;66206;0.000;0.000;2023-07-02T10:24:28;97385.02;;;26.65;23.23
77212;BME280;66206;0.000;0.000;2023-07-02T10:26:55;97386.10;;;26.59;22.99
77212;BME280;66206;0.000;0.000;2023-07-02T10:29:22;97395.35;;;26.47;23.18
77212;BME280;66206;0.000;0.000;2023-07-02T10:31:50;97396.80;;;27.12;22.79
77212;BME280;66206;0.000;0.000;2023-07-02T10:34:27;97394.98;;;26.85;22.92
77212;BME280;66206;0.000;0.000;2023-07-02T10:36:43;97396.10;;;27.05;22.79
77212;BME280;66206;0.000;0.000;2023-07-02T10:39:10;97398.96;;;27.03;22.95
77212;BME280;66206;0.000;0.000;2023-07-02T10:41:37;97394.06;;;26.72;23.19
77212;BME280;66206;0.000;0.000;2023-07-02T10:44:05;97394.63;;;26.83;23.15
77212;BME280;66206;0.000;0.000;2023-07-02T10:46:32;97389.66;;;26.36;23.53
77212;BME280;66206;0.000;0.000;2023-07-02T10:48:58;97393.98;;;26.48;23.48
77212;BME280;66206;0.000;0.000;2023-07-02T10:51:25;97397.76;;;26.38;23.41
77212;BME280;66206;0.000;0.000;2023-07-02T10:53:59;97393.75;;;26.47;23.37
77212;BME280;66206;0.000;0.000;2023-07-02T10:56:21;97393.22;;;26.35;23.33
77212;BME280;66206;0.000;0.000;2023-07-02T10:58:48;97390.59;;;26.14;23.52
77212;BME280;66206;0.000;0.000;2023-07-02T11:01:15;97392.11;;;26.51;23.16
77212;BME280;66206;0.000;0.000;2023-07-02T11:03:42;97396.41;;;26.71;23.03
77212;BME280;66206;0.000;0.000;2023-07-02T11:06:09;97392.36;;;26.24;23.28
77212;BME280;66206;0.000;0.000;2023-07-02T11:08:37;97392.36;;;26.50;23.11
77212;BME280;66206;0.000;0.000;2023-07-02T11:11:04;97394.60;;;26.48;23.29
77212;BME280;66206;0.000;0.000;2023-07-02T11:13:31;97398.31;;;26.37;23.33
77212;BME280;66206;0.000;0.000;2023-07-02T11:15:58;97392.43;;;26.41;23.15
77212;BME280;66206;0.000;0.000;2023-07-02T11:18:29;97392.17;;;26.28;22.94
77212;BME280;66206;0.000;0.000;2023-07-02T11:20:51;97392.32;;;26.13;23.30
77212;BME280;66206;0.000;0.000;2023-07-02T11:23:18;97396.87;;;26.21;22.93
77212;BME280;66206;0.000;0.000;2023-07-02T11:26:02;97394.39;;;26.06;23.14
77212;BME280;66206;0.000;0.000;2023-07-02T11:28:13;97395.41;;;26.17;22.89
77212;BME280;66206;0.000;0.000;2023-07-02T11:30:45;97393.21;;;26.04;22.85
77212;BME280;66206;0.000;0.000;2023-07-02T11:33:06;97395.84;;;25.80;23.03
77212;BME280;66206;0.000;0.000;2023-07-02T11:35:33;97392.18;;;25.97;22.84
77212;BME280;66206;0.000;0.000;2023-07-02T11:38:00;97393.33;;;26.20;22.64
77212;BME280;66206;0.000;0.000;2023-07-02T11:40:27;97392.39;;;26.01;22.60
77212;BME280;66206;0.000;0.000;2023-07-02T11:42:54;97389.40;;;26.05;22.51
77212;BME280;66206;0.000;0.000;2023-07-02T11:45:21;97388.27;;;26.20;22.49
77212;BME280;66206;0.000;0.000;2023-07-02T11:47:47;97391.67;;;26.12;22.36
77212;BME280;66206;0.000;0.000;2023-07-02T11:50:14;97387.27;;;25.93;22.59
77212;BME280;66206;0.000;0.000;2023-07-02T11:52:41;97396.50;;;25.89;22.25
77212;BME280;66206;0.000;0.000;2023-07-02T11:55:08;97397.21;;;25.86;22.01
77212;BME280;66206;0.000;0.000;2023-07-02T11:57:34;97394.47;;;25.90;21.83
77212;BME280;66206;0.000;0.000;2023-07-02T12:00:02;97392.97;;;25.99;21.76
77212;BME280;66206;0.000;0.000;2023-07-02T12:02:28;97389.02;;;26.01;21.71
77212;BME280;66206;0.000;0.000;2023-07-02T12:04:55;97391.83;;;26.24;21.64
77212;BME280;66206;0.000;0.000;2023-07-02T12:07:22;97391.21;;;25.79;21.97
77212;BME280;66206;0.000;0.000;2023-07-02T12:09:49;97394.65;;;25.87;22.07
77212;BME280;66206;0.000;0.000;2023-07-02T12:12:15;97401.05;;;26.00;21.93
77212;BME280;66206;0.000;0.000;2023-07-02T12:14:42;97395.71;;;25.76;21.81
77212;BME280;66206;0.000;0.000;2023-07-02T12:17:09;97391.32;;;25.88;21.54
77212;BME280;66206;0.000;0.000;2023-07-02T12:19:36;97391.60;;;25.95;21.69
77212;BME280;66206;0.000;0.000;2023-07-02T12:22:03;97389.44;;;25.81;21.92
77212;BME280;66206;0.000;0.000;2023-07-02T12:24:30;97387.33;;;25.95;21.84
77212;BME280;66206;0.000;0.000;2023-07-02T12:26:56;97389.75;;;26.08;21.66
77212;BME280;66206;0.000;0.000;2023-07-02T12:29:23;97390.73;;;25.96;21.92
77212;BME280;66206;0.000;0.000;2023-07-02T12:31:50;97393.86;;;26.08;21.61
77212;BME280;66206;0.000;0.000;2023-07-02T12:34:17;97389.95;;;26.23;21.64
77212;BME280;66206;0.000;0.000;2023-07-02T12:36:43;97388.27;;;25.73;22.09
77212;BME280;66206;0.000;0.000;2023-07-02T12:39:10;97385.47;;;26.22;21.75
77212;BME280;66206;0.000;0.000;2023-07-02T12:41:37;97386.88;;;26.22;21.72
77212;BME280;66206;0.000;0.000;2023-07-02T12:44:04;97388.74;;;26.30;21.61
77212;BME280;66206;0.000;0.000;2023-07-02T12:46:30;97386.52;;;26.19;21.64
77212;BME280;66206;0.000;0.000;2023-07-02T12:48:57;97387.20;;;26.08;21.50
77212;BME280;66206;0.000;0.000;2023-07-02T12:51:24;97382.74;;;26.06;21.62
77212;BME280;66206;0.000;0.000;2023-07-02T12:53:51;97384.18;;;25.69;21.75
77212;BME280;66206;0.000;0.000;2023-07-02T12:56:17;97386.49;;;25.95;21.56
77212;BME280;66206;0.000;0.000;2023-07-02T12:58:44;97391.03;;;26.28;21.33
77212;BME280;66206;0.000;0.000;2023-07-02T13:01:11;97390.99;;;26.12;21.27
77212;BME280;66206;0.000;0.000;2023-07-02T13:03:38;97388.25;;;25.90;21.40
77212;BME280;66206;0.000;0.000;2023-07-02T13:06:04;97387.24;;;25.68;21.52